sensor_id;sensor_type;location;lat;lon;timestamp;P1;durP1;ratioP1;P2;durP2;ratioP2
58366;SDS011;57745;42.524;12.052;2023-08-06T00:00:20;0.45;;;0.40;;
58366;SDS011;57745;42.524;12.052;2023-08-06T00:02:46;1.23;;;0.57;;
58366;SDS011;57745;42.524;12.052;2023-08-06T00:05:13;0.65;;;0.50;;
58366;SDS011;57745;42.524;12.052;2023-08-06T00:07:38;0.93;;;0.40;;
58366;SDS011;57745;42.524;12.052;2023-08-06T00:10:04;0.75;;;0.50;;
58366;SDS011;57745;42.524;12.052;2023-08-06T00:12:29;1.00;;;0.40;;
58366;SDS011;57745;42.524;12.052;2023-08-06T00:14:55;3.38;;;0.60;;
58366;SDS011;57745;42.524;12.052;2023-08-06T00:17:21;1.80;;;0.60;;
58366;SDS011;57745;42.524;12.052;2023-08-06T00:19:47;3.03;;;0.50;;
58366;SDS011;57745;42.524;12.052;2023-08-06T00:22:12;0.70;;;0.50;;
58366;SDS011;57745;42.524;12.052;2023-08-06T00:24:38;1.85;;;0.57;;
58366;SDS011;57745;42.524;12.052;2023-08-06T00:27:03;1.25;;;0.50;;
58366;SDS011;57745;42.524;12.052;2023-08-06T00:29:29;2.63;;;0.40;;
58366;SDS011;57745;42.524;12.052;2023-08-06T00:31:54;0.77;;;0.40;;
58366;SDS011;57745;42.524;12.052;2023-08-06T00:34:20;0.40;;;0.40;;
58366;SDS011;57745;42.524;12.052;2023-08-06T00:36:45;1.23;;;0.50;;
58366;SDS011;57745;42.524;12.052;2023-08-06T00:39:11;0.70;;;0.40;;
58366;SDS011;57745;42.524;12.052;2023-08-06T00:41:36;1.38;;;0.50;;
58366;SDS011;57745;42.524;12.052;2023-08-06T00:44:02;0.40;;;0.40;;
58366;SDS011;57745;42.524;12.052;2023-08-06T00:46:28;2.58;;;0.50;;
58366;SDS011;57745;42.524;12.052;2023-08-06T00:48:53;1.85;;;1.00;;
58366;SDS011;57745;42.524;12.052;2023-08-06T00:51:20;0.40;;;0.32;;
58366;SDS011;57745;42.524;12.052;2023-08-06T00:53:46;0.50;;;0.40;;
58366;SDS011;57745;42.524;12.052;2023-08-06T00:56:12;0.50;;;0.50;;
58366;SDS011;57745;42.524;12.052;2023-08-06T00:58:38;0.60;;;0.40;;
58366;SDS011;57745;42.524;12.052;2023-08-06T01:01:04;1.10;;;0.40;;
58366;SDS011;57745;42.524;12.052;2023-08-06T01:03:29;0.73;;;0.40;;
58366;SDS011;57745;42.524;12.052;2023-08-06T01:05:55;0.70;;;0.30;;
58366;SDS011;57745;42.524;12.052;2023-08-06T01:13:54;2.33;;;0.30;;
58366;SDS011;57745;42.524;12.052;2023-08-06T01:16:27;0.47;;;0.30;;
58366;SDS011;57745;42.524;12.052;2023-08-06T01:18:55;0.95;;;0.40;;
58366;SDS011;57745;42.524;12.052;2023-08-06T01:21:23;1.73;;;0.40;;
58366;SDS011;57745;42.524;12.052;2023-08-06T01:23:48;2.53;;;0.30;;
58366;SDS011;57745;42.524;12.052;2023-08-06T01:28:52;0.70;;;0.50;;
58366;SDS011;57745;42.524;12.052;2023-08-06T01:31:30;0.80;;;0.40;;
58366;SDS011;57745;42.524;12.052;2023-08-06T01:33:58;0.30;;;0.30;;
58366;SDS011;57745;42.524;12.052;2023-08-06T01:36:24;0.63;;;0.40;;
58366;SDS011;57745;42.524;12.052;2023-08-06T01:38:52;0.80;;;0.52;;
58366;SDS011;57745;42.524;12.052;2023-08-06T01:41:21;0.50;;;0.40;;
58366;SDS011;57745;42.524;12.052;2023-08-06T01:43:47;1.35;;;0.50;;
58366;SDS011;57745;42.524;12.052;2023-08-06T01:46:13;1.73;;;0.47;;
58366;SDS011;57745;42.524;12.052;2023-08-06T01:48:38;1.95;;;0.50;;
58366;SDS011;57745;42.524;12.052;2023-08-06T01:51:04;2.35;;;0.43;;
58366;SDS011;57745;42.524;12.052;2023-08-06T01:53:30;1.23;;;0.30;;
58366;SDS011;57745;42.524;12.052;2023-08-06T01:55:56;5.78;;;0.60;;
58366;SDS011;57745;42.524;12.052;2023-08-06T01:58:22;1.20;;;0.38;;
58366;SDS011;57745;42.524;12.052;2023-08-06T02:00:48;0.88;;;0.30;;
58366;SDS011;57745;42.524;12.052;2023-08-06T02:03:13;0.60;;;0.47;;
58366;SDS011;57745;42.524;12.052;2023-08-06T02:05:39;0.43;;;0.40;;
58366;SDS011;57745;42.524;12.052;2023-08-06T02:08:05;0.70;;;0.47;;
58366;SDS011;57745;42.524;12.052;2023-08-06T02:10:30;1.20;;;0.50;;
58366;SDS011;57745;42.524;12.052;2023-08-06T02:12:56;0.95;;;0.47;;
58366;SDS011;57745;42.524;12.052;2023-08-06T02:15:21;0.50;;;0.45;;
58366;SDS011;57745;42.524;12.052;2023-08-06T02:17:47;0.73;;;0.50;;
58366;SDS011;57745;42.524;12.052;2023-08-06T02:20:12;0.75;;;0.40;;
58366;SDS011;57745;42.524;12.052;2023-08-06T02:22:38;2.50;;;0.50;;
58366;SDS011;57745;42.524;12.052;2023-08-06T02:25:03;0.80;;;0.50;;
58366;SDS011;57745;42.524;12.052;2023-08-06T02:27:29;0.60;;;0.40;;
58366;SDS011;57745;42.524;12.052;2023-08-06T02:29:54;1.52;;;0.40;;
58366;SDS011;57745;42.524;12.052;2023-08-06T02:32:20;0.47;;;0.45;;
58366;SDS011;57745;42.524;12.052;2023-08-06T02:34:45;1.02;;;0.50;;
58366;SDS011;57745;42.524;12.052;2023-08-06T02:37:11;1.90;;;0.60;;
58366;SDS011;57745;42.524;12.052;2023-08-06T02:39:36;1.42;;;0.43;;
58366;SDS011;57745;42.524;12.052;2023-08-06T02:42:04;1.13;;;0.55;;
58366;SDS011;57745;42.524;12.052;2023-08-06T02:44:31;1.00;;;0.70;;
58366;SDS011;57745;42.524;12.052;2023-08-06T02:46:57;1.70;;;1.15;;
58366;SDS011;57745;42.524;12.052;2023-08-06T02:49:22;2.10;;;1.08;;
58366;SDS011;57745;42.524;12.052;2023-08-06T02:51:47;1.67;;;0.98;;
58366;SDS011;57745;42.524;12.052;2023-08-06T02:54:13;2.90;;;1.23;;
58366;SDS011;57745;42.524;12.052;2023-08-06T02:56:38;2.47;;;1.00;;
58366;SDS011;57745;42.524;12.052;2023-08-06T02:59:08;2.05;;;0.98;;
58366;SDS011;57745;42.524;12.052;2023-08-06T03:01:34;2.50;;;1.05;;
58366;SDS011;57745;42.524;12.052;2023-08-06T03:04:01;2.55;;;1.10;;
58366;SDS011;57745;42.524;12.052;2023-08-06T03:06:26;2.92;;;1.30;;
58366;SDS011;57745;42.524;12.052;2023-08-06T03:08:52;2.58;;;1.40;;
58366;SDS011;57745;42.524;12.052;2023-08-06T03:11:17;3.10;;;1.05;;
58366;SDS011;57745;42.524;12.052;2023-08-06T03:13:43;1.00;;;0.80;;
58366;SDS011;57745;42.524;12.052;2023-08-06T03:16:08;3.78;;;1.20;;
58366;SDS011;57745;42.524;12.052;2023-08-06T03:18:33;1.10;;;0.70;;
58366;SDS011;57745;42.524;12.052;2023-08-06T03:20:59;1.38;;;0.70;;
58366;SDS011;57745;42.524;12.052;2023-08-06T03:23:24;2.30;;;1.00;;
58366;SDS011;57745;42.524;12.052;2023-08-06T03:25:50;1.38;;;0.63;;
58366;SDS011;57745;42.524;12.052;2023-08-06T03:28:15;1.02;;;0.70;;
58366;SDS011;57745;42.524;12.052;2023-08-06T03:30:41;2.25;;;0.60;;
58366;SDS011;57745;42.524;12.052;2023-08-06T03:33:07;1.15;;;0.63;;
58366;SDS011;57745;42.524;12.052;2023-08-06T03:35:32;1.17;;;0.70;;
58366;SDS011;57745;42.524;12.052;2023-08-06T03:37:57;0.95;;;0.40;;
58366;SDS011;57745;42.524;12.052;2023-08-06T03:40:23;0.93;;;0.50;;
58366;SDS011;57745;42.524;12.052;2023-08-06T03:42:48;1.38;;;0.57;;
58366;SDS011;57745;42.524;12.052;2023-08-06T03:45:14;1.30;;;0.40;;
58366;SDS011;57745;42.524;12.052;2023-08-06T03:47:39;1.15;;;0.52;;
58366;SDS011;57745;42.524;12.052;2023-08-06T03:50:05;1.33;;;0.50;;
58366;SDS011;57745;42.524;12.052;2023-08-06T03:52:31;0.60;;;0.40;;
58366;SDS011;57745;42.524;12.052;2023-08-06T03:54:56;2.25;;;0.40;;
58366;SDS011;57745;42.524;12.052;2023-08-06T03:57:22;0.98;;;0.40;;
58366;SDS011;57745;42.524;12.052;2023-08-06T03:59:47;1.73;;;0.70;;
58366;SDS011;57745;42.524;12.052;2023-08-06T04:02:13;1.67;;;0.50;;
58366;SDS011;57745;42.524;12.052;2023-08-06T04:04:38;1.33;;;0.60;;
58366;SDS011;57745;42.524;12.052;2023-08-06T04:07:04;0.75;;;0.50;;
58366;SDS011;57745;42.524;12.052;2023-08-06T04:09:29;0.50;;;0.50;;
58366;SDS011;57745;42.524;12.052;2023-08-06T04:11:55;1.05;;;0.50;;
58366;SDS011;57745;42.524;12.052;2023-08-06T04:14:21;1.80;;;0.50;;
58366;SDS011;57745;42.524;12.052;2023-08-06T04:16:47;0.30;;;0.30;;
58366;SDS011;57745;42.524;12.052;2023-08-06T04:19:12;0.50;;;0.50;;
58366;SDS011;57745;42.524;12.052;2023-08-06T04:21:38;1.65;;;0.40;;
58366;SDS011;57745;42.524;12.052;2023-08-06T04:24:03;2.95;;;0.77;;
58366;SDS011;57745;42.524;12.052;2023-08-06T04:26:29;1.42;;;0.68;;
58366;SDS011;57745;42.524;12.052;2023-08-06T04:28:54;1.92;;;0.50;;
58366;SDS011;57745;42.524;12.052;2023-08-06T04:31:20;1.50;;;1.00;;
58366;SDS011;57745;42.524;12.052;2023-08-06T04:33:47;0.63;;;0.50;;
58366;SDS011;57745;42.524;12.052;2023-08-06T04:36:12;1.85;;;0.50;;
58366;SDS011;57745;42.524;12.052;2023-08-06T04:38:37;1.27;;;0.90;;
58366;SDS011;57745;42.524;12.052;2023-08-06T04:41:03;1.20;;;0.65;;
58366;SDS011;57745;42.524;12.052;2023-08-06T04:43:29;1.33;;;0.50;;
58366;SDS011;57745;42.524;12.052;2023-08-06T04:45:54;0.95;;;0.63;;
58366;SDS011;57745;42.524;12.052;2023-08-06T04:48:21;2.45;;;0.80;;
58366;SDS011;57745;42.524;12.052;2023-08-06T04:50:48;1.50;;;0.55;;
58366;SDS011;57745;42.524;12.052;2023-08-06T04:53:14;3.00;;;0.57;;
58366;SDS011;57745;42.524;12.052;2023-08-06T04:55:40;0.60;;;0.50;;
58366;SDS011;57745;42.524;12.052;2023-08-06T04:58:07;1.00;;;0.55;;
58366;SDS011;57745;42.524;12.052;2023-08-06T05:00:33;1.40;;;0.57;;
58366;SDS011;57745;42.524;12.052;2023-08-06T05:02:59;1.67;;;0.57;;
58366;SDS011;57745;42.524;12.052;2023-08-06T05:05:25;1.38;;;0.50;;
58366;SDS011;57745;42.524;12.052;2023-08-06T05:07:51;0.68;;;0.45;;
58366;SDS011;57745;42.524;12.052;2023-08-06T05:10:16;0.98;;;0.63;;
58366;SDS011;57745;42.524;12.052;2023-08-06T05:12:42;1.05;;;0.60;;
58366;SDS011;57745;42.524;12.052;2023-08-06T05:15:07;0.93;;;0.52;;
58366;SDS011;57745;42.524;12.052;2023-08-06T05:17:33;1.13;;;0.65;;
58366;SDS011;57745;42.524;12.052;2023-08-06T05:19:59;2.65;;;0.57;;
58366;SDS011;57745;42.524;12.052;2023-08-06T05:22:24;1.70;;;0.60;;
58366;SDS011;57745;42.524;12.052;2023-08-06T05:24:51;3.35;;;0.52;;
58366;SDS011;57745;42.524;12.052;2023-08-06T05:27:16;0.70;;;0.43;;
58366;SDS011;57745;42.524;12.052;2023-08-06T05:29:44;1.15;;;0.32;;
58366;SDS011;57745;42.524;12.052;2023-08-06T05:32:10;2.28;;;0.60;;
58366;SDS011;57745;42.524;12.052;2023-08-06T05:34:35;2.15;;;0.60;;
58366;SDS011;57745;42.524;12.052;2023-08-06T05:37:00;1.70;;;0.60;;
58366;SDS011;57745;42.524;12.052;2023-08-06T05:39:26;3.63;;;0.70;;
58366;SDS011;57745;42.524;12.052;2023-08-06T05:41:51;0.90;;;0.60;;
58366;SDS011;57745;42.524;12.052;2023-08-06T05:44:17;2.70;;;0.80;;
58366;SDS011;57745;42.524;12.052;2023-08-06T05:46:43;4.93;;;0.85;;
58366;SDS011;57745;42.524;12.052;2023-08-06T05:49:08;1.73;;;0.65;;
58366;SDS011;57745;42.524;12.052;2023-08-06T05:51:33;1.60;;;0.55;;
58366;SDS011;57745;42.524;12.052;2023-08-06T05:53:59;1.58;;;0.70;;
58366;SDS011;57745;42.524;12.052;2023-08-06T05:56:24;2.03;;;0.80;;
58366;SDS011;57745;42.524;12.052;2023-08-06T05:58:50;2.55;;;0.80;;
58366;SDS011;57745;42.524;12.052;2023-08-06T06:01:18;1.58;;;0.70;;
58366;SDS011;57745;42.524;12.052;2023-08-06T06:03:43;2.83;;;0.70;;
58366;SDS011;57745;42.524;12.052;2023-08-06T06:06:09;3.92;;;0.90;;
58366;SDS011;57745;42.524;12.052;2023-08-06T06:08:34;2.50;;;0.82;;
58366;SDS011;57745;42.524;12.052;2023-08-06T06:11:00;1.42;;;0.60;;
58366;SDS011;57745;42.524;12.052;2023-08-06T06:13:25;2.47;;;0.88;;
58366;SDS011;57745;42.524;12.052;2023-08-06T06:15:54;1.95;;;0.80;;
58366;SDS011;57745;42.524;12.052;2023-08-06T06:18:20;1.67;;;0.55;;
58366;SDS011;57745;42.524;12.052;2023-08-06T06:20:46;1.15;;;0.90;;
58366;SDS011;57745;42.524;12.052;2023-08-06T06:23:11;1.70;;;0.73;;
58366;SDS011;57745;42.524;12.052;2023-08-06T06:25:41;3.17;;;0.82;;
58366;SDS011;57745;42.524;12.052;2023-08-06T06:28:07;1.20;;;0.80;;
58366;SDS011;57745;42.524;12.052;2023-08-06T06:30:33;2.97;;;0.82;;
58366;SDS011;57745;42.524;12.052;2023-08-06T06:32:58;6.05;;;1.05;;
58366;SDS011;57745;42.524;12.052;2023-08-06T06:35:23;4.53;;;1.15;;
58366;SDS011;57745;42.524;12.052;2023-08-06T06:37:49;3.00;;;1.23;;
58366;SDS011;57745;42.524;12.052;2023-08-06T06:40:14;3.47;;;1.30;;
58366;SDS011;57745;42.524;12.052;2023-08-06T06:42:40;2.45;;;1.40;;
58366;SDS011;57745;42.524;12.052;2023-08-06T06:45:06;5.00;;;1.45;;
58366;SDS011;57745;42.524;12.052;2023-08-06T06:47:32;4.15;;;2.00;;
58366;SDS011;57745;42.524;12.052;2023-08-06T06:49:57;3.75;;;1.52;;
58366;SDS011;57745;42.524;12.052;2023-08-06T06:52:23;3.75;;;1.10;;
58366;SDS011;57745;42.524;12.052;2023-08-06T06:54:48;3.55;;;1.25;;
58366;SDS011;57745;42.524;12.052;2023-08-06T06:57:14;2.92;;;0.75;;
58366;SDS011;57745;42.524;12.052;2023-08-06T06:59:39;3.67;;;1.30;;
58366;SDS011;57745;42.524;12.052;2023-08-06T07:02:05;1.75;;;1.23;;
58366;SDS011;57745;42.524;12.052;2023-08-06T07:04:30;5.72;;;1.30;;
58366;SDS011;57745;42.524;12.052;2023-08-06T07:06:56;4.38;;;1.40;;
58366;SDS011;57745;42.524;12.052;2023-08-06T07:09:21;5.60;;;1.50;;
58366;SDS011;57745;42.524;12.052;2023-08-06T07:11:47;2.28;;;1.30;;
58366;SDS011;57745;42.524;12.052;2023-08-06T07:14:12;2.15;;;1.23;;
58366;SDS011;57745;42.524;12.052;2023-08-06T07:16:39;2.30;;;1.45;;
58366;SDS011;57745;42.524;12.052;2023-08-06T07:19:05;3.67;;;1.80;;
58366;SDS011;57745;42.524;12.052;2023-08-06T07:21:31;4.75;;;1.75;;
58366;SDS011;57745;42.524;12.052;2023-08-06T07:23:57;5.15;;;1.70;;
58366;SDS011;57745;42.524;12.052;2023-08-06T07:26:24;3.53;;;1.55;;
58366;SDS011;57745;42.524;12.052;2023-08-06T07:28:49;6.25;;;1.88;;
58366;SDS011;57745;42.524;12.052;2023-08-06T07:31:15;2.67;;;1.58;;
58366;SDS011;57745;42.524;12.052;2023-08-06T07:33:40;3.47;;;1.40;;
58366;SDS011;57745;42.524;12.052;2023-08-06T07:36:13;3.30;;;1.40;;
58366;SDS011;57745;42.524;12.052;2023-08-06T07:41:05;4.20;;;2.55;;
58366;SDS011;57745;42.524;12.052;2023-08-06T07:43:30;3.88;;;2.30;;
58366;SDS011;57745;42.524;12.052;2023-08-06T07:45:59;5.15;;;2.20;;
58366;SDS011;57745;42.524;12.052;2023-08-06T07:48:26;4.18;;;1.98;;
58366;SDS011;57745;42.524;12.052;2023-08-06T07:50:52;4.30;;;2.08;;
58366;SDS011;57745;42.524;12.052;2023-08-06T07:53:21;4.30;;;2.30;;
58366;SDS011;57745;42.524;12.052;2023-08-06T07:55:51;17.48;;;10.65;;
58366;SDS011;57745;42.524;12.052;2023-08-06T07:58:17;10.45;;;6.15;;
58366;SDS011;57745;42.524;12.052;2023-08-06T08:00:43;6.60;;;4.50;;
58366;SDS011;57745;42.524;12.052;2023-08-06T08:03:14;10.68;;;4.72;;
58366;SDS011;57745;42.524;12.052;2023-08-06T08:05:40;5.32;;;3.10;;
58366;SDS011;57745;42.524;12.052;2023-08-06T08:08:07;6.30;;;3.20;;
58366;SDS011;57745;42.524;12.052;2023-08-06T08:10:33;6.43;;;2.95;;
58366;SDS011;57745;42.524;12.052;2023-08-06T08:12:59;6.65;;;2.30;;
58366;SDS011;57745;42.524;12.052;2023-08-06T08:15:31;3.45;;;2.00;;
58366;SDS011;57745;42.524;12.052;2023-08-06T08:17:57;4.18;;;1.75;;
58366;SDS011;57745;42.524;12.052;2023-08-06T08:20:23;5.43;;;1.88;;
58366;SDS011;57745;42.524;12.052;2023-08-06T08:22:49;4.00;;;1.70;;
58366;SDS011;57745;42.524;12.052;2023-08-06T08:25:15;5.13;;;2.13;;
58366;SDS011;57745;42.524;12.052;2023-08-06T08:27:41;3.20;;;1.77;;
58366;SDS011;57745;42.524;12.052;2023-08-06T08:30:07;4.93;;;1.83;;
58366;SDS011;57745;42.524;12.052;2023-08-06T08:32:32;2.17;;;1.70;;
58366;SDS011;57745;42.524;12.052;2023-08-06T08:34:58;3.58;;;1.70;;
58366;SDS011;57745;42.524;12.052;2023-08-06T08:37:24;2.10;;;1.60;;
58366;SDS011;57745;42.524;12.052;2023-08-06T08:39:49;4.03;;;1.40;;
58366;SDS011;57745;42.524;12.052;2023-08-06T08:42:15;3.55;;;1.48;;
58366;SDS011;57745;42.524;12.052;2023-08-06T08:44:42;4.63;;;1.67;;
58366;SDS011;57745;42.524;12.052;2023-08-06T08:47:08;3.08;;;1.20;;
58366;SDS011;57745;42.524;12.052;2023-08-06T08:49:37;3.78;;;1.45;;
58366;SDS011;57745;42.524;12.052;2023-08-06T08:52:03;2.88;;;1.20;;
58366;SDS011;57745;42.524;12.052;2023-08-06T08:54:35;3.27;;;1.47;;
58366;SDS011;57745;42.524;12.052;2023-08-06T08:57:03;3.15;;;1.20;;
58366;SDS011;57745;42.524;12.052;2023-08-06T08:59:29;2.88;;;1.30;;
58366;SDS011;57745;42.524;12.052;2023-08-06T09:01:54;2.10;;;1.20;;
58366;SDS011;57745;42.524;12.052;2023-08-06T09:04:21;2.83;;;1.02;;
58366;SDS011;57745;42.524;12.052;2023-08-06T09:06:49;2.10;;;1.10;;
58366;SDS011;57745;42.524;12.052;2023-08-06T09:09:16;3.67;;;1.30;;
58366;SDS011;57745;42.524;12.052;2023-08-06T09:11:49;4.90;;;1.58;;
58366;SDS011;57745;42.524;12.052;2023-08-06T09:14:15;2.28;;;1.42;;
58366;SDS011;57745;42.524;12.052;2023-08-06T09:16:41;2.45;;;1.08;;
58366;SDS011;57745;42.524;12.052;2023-08-06T09:19:13;4.25;;;0.90;;
58366;SDS011;57745;42.524;12.052;2023-08-06T09:21:42;3.83;;;1.60;;
58366;SDS011;57745;42.524;12.052;2023-08-06T09:26:37;2.92;;;1.30;;
58366;SDS011;57745;42.524;12.052;2023-08-06T09:29:09;2.58;;;1.30;;
58366;SDS011;57745;42.524;12.052;2023-08-06T09:31:44;3.20;;;1.13;;
58366;SDS011;57745;42.524;12.052;2023-08-06T09:34:11;3.42;;;1.40;;
58366;SDS011;57745;42.524;12.052;2023-08-06T09:36:53;4.38;;;1.38;;
58366;SDS011;57745;42.524;12.052;2023-08-06T09:39:19;2.28;;;1.40;;
58366;SDS011;57745;42.524;12.052;2023-08-06T09:41:58;4.43;;;1.30;;
58366;SDS011;57745;42.524;12.052;2023-08-06T09:44:26;3.38;;;1.25;;
58366;SDS011;57745;42.524;12.052;2023-08-06T09:46:56;2.33;;;1.58;;
58366;SDS011;57745;42.524;12.052;2023-08-06T09:49:27;4.45;;;1.20;;
58366;SDS011;57745;42.524;12.052;2023-08-06T09:51:58;2.45;;;1.17;;
58366;SDS011;57745;42.524;12.052;2023-08-06T09:54:25;3.33;;;1.40;;
58366;SDS011;57745;42.524;12.052;2023-08-06T09:56:55;4.72;;;1.20;;
58366;SDS011;57745;42.524;12.052;2023-08-06T09:59:22;1.98;;;1.20;;
58366;SDS011;57745;42.524;12.052;2023-08-06T10:01:48;2.10;;;1.50;;
58366;SDS011;57745;42.524;12.052;2023-08-06T10:04:15;2.55;;;1.33;;
58366;SDS011;57745;42.524;12.052;2023-08-06T10:06:46;4.07;;;1.27;;
58366;SDS011;57745;42.524;12.052;2023-08-06T10:09:15;3.35;;;1.30;;
58366;SDS011;57745;42.524;12.052;2023-08-06T10:11:42;2.72;;;1.05;;
58366;SDS011;57745;42.524;12.052;2023-08-06T10:14:13;2.55;;;1.40;;
58366;SDS011;57745;42.524;12.052;2023-08-06T10:16:43;4.95;;;1.38;;
58366;SDS011;57745;42.524;12.052;2023-08-06T10:19:09;4.80;;;1.45;;
58366;SDS011;57745;42.524;12.052;2023-08-06T10:21:40;3.10;;;1.25;;
58366;SDS011;57745;42.524;12.052;2023-08-06T10:24:08;2.30;;;1.00;;
58366;SDS011;57745;42.524;12.052;2023-08-06T10:26:37;3.47;;;1.40;;
58366;SDS011;57745;42.524;12.052;2023-08-06T10:29:34;4.43;;;1.23;;
58366;SDS011;57745;42.524;12.052;2023-08-06T10:32:01;1.95;;;1.00;;
58366;SDS011;57745;42.524;12.052;2023-08-06T10:34:52;3.65;;;1.40;;
58366;SDS011;57745;42.524;12.052;2023-08-06T10:37:38;4.88;;;1.73;;
58366;SDS011;57745;42.524;12.052;2023-08-06T10:40:05;2.08;;;1.00;;
58366;SDS011;57745;42.524;12.052;2023-08-06T10:42:32;4.28;;;1.40;;
58366;SDS011;57745;42.524;12.052;2023-08-06T10:45:10;3.75;;;1.30;;
58366;SDS011;57745;42.524;12.052;2023-08-06T10:47:39;3.90;;;0.98;;
58366;SDS011;57745;42.524;12.052;2023-08-06T10:50:06;5.47;;;1.38;;
58366;SDS011;57745;42.524;12.052;2023-08-06T10:52:44;3.67;;;1.20;;
58366;SDS011;57745;42.524;12.052;2023-08-06T10:55:10;3.55;;;1.50;;
58366;SDS011;57745;42.524;12.052;2023-08-06T10:57:36;3.00;;;1.05;;
58366;SDS011;57745;42.524;12.052;2023-08-06T11:00:03;8.90;;;1.27;;
58366;SDS011;57745;42.524;12.052;2023-08-06T11:02:33;5.68;;;1.65;;
58366;SDS011;57745;42.524;12.052;2023-08-06T11:05:04;6.85;;;1.70;;
58366;SDS011;57745;42.524;12.052;2023-08-06T11:07:32;6.25;;;1.80;;
58366;SDS011;57745;42.524;12.052;2023-08-06T11:10:05;6.22;;;1.80;;
58366;SDS011;57745;42.524;12.052;2023-08-06T11:12:35;5.60;;;1.70;;
58366;SDS011;57745;42.524;12.052;2023-08-06T11:15:01;9.00;;;1.98;;
58366;SDS011;57745;42.524;12.052;2023-08-06T11:17:28;10.93;;;2.22;;
58366;SDS011;57745;42.524;12.052;2023-08-06T11:19:54;7.97;;;2.13;;
58366;SDS011;57745;42.524;12.052;2023-08-06T11:22:20;8.60;;;2.25;;
58366;SDS011;57745;42.524;12.052;2023-08-06T11:24:47;6.28;;;1.98;;
58366;SDS011;57745;42.524;12.052;2023-08-06T11:27:13;7.47;;;2.03;;
58366;SDS011;57745;42.524;12.052;2023-08-06T11:29:40;9.93;;;2.38;;
58366;SDS011;57745;42.524;12.052;2023-08-06T11:32:06;5.85;;;2.40;;
58366;SDS011;57745;42.524;12.052;2023-08-06T11:34:33;10.15;;;1.88;;
58366;SDS011;57745;42.524;12.052;2023-08-06T11:36:58;11.60;;;2.38;;
58366;SDS011;57745;42.524;12.052;2023-08-06T11:39:24;9.73;;;2.00;;
58366;SDS011;57745;42.524;12.052;2023-08-06T11:41:50;8.38;;;3.53;;
58366;SDS011;57745;42.524;12.052;2023-08-06T11:44:17;8.48;;;2.40;;
58366;SDS011;57745;42.524;12.052;2023-08-06T11:46:53;11.68;;;2.40;;
58366;SDS011;57745;42.524;12.052;2023-08-06T11:52:14;8.23;;;2.38;;
58366;SDS011;57745;42.524;12.052;2023-08-06T11:54:44;14.13;;;2.53;;
58366;SDS011;57745;42.524;12.052;2023-08-06T11:57:24;8.00;;;2.60;;
58366;SDS011;57745;42.524;12.052;2023-08-06T11:59:49;11.05;;;2.40;;
58366;SDS011;57745;42.524;12.052;2023-08-06T12:02:15;7.18;;;2.30;;
58366;SDS011;57745;42.524;12.052;2023-08-06T12:04:59;8.73;;;2.47;;
58366;SDS011;57745;42.524;12.052;2023-08-06T12:07:30;7.38;;;2.95;;
58366;SDS011;57745;42.524;12.052;2023-08-06T12:09:57;9.50;;;2.88;;
58366;SDS011;57745;42.524;12.052;2023-08-06T12:12:23;10.65;;;2.45;;
58366;SDS011;57745;42.524;12.052;2023-08-06T12:14:49;10.15;;;2.25;;
58366;SDS011;57745;42.524;12.052;2023-08-06T12:17:15;6.38;;;2.38;;
58366;SDS011;57745;42.524;12.052;2023-08-06T12:19:40;10.07;;;2.60;;
58366;SDS011;57745;42.524;12.052;2023-08-06T12:22:05;7.10;;;2.15;;
58366;SDS011;57745;42.524;12.052;2023-08-06T12:24:31;11.02;;;2.45;;
58366;SDS011;57745;42.524;12.052;2023-08-06T12:27:00;12.77;;;2.67;;
58366;SDS011;57745;42.524;12.052;2023-08-06T12:29:27;7.45;;;2.63;;
58366;SDS011;57745;42.524;12.052;2023-08-06T12:31:53;9.23;;;2.90;;
58366;SDS011;57745;42.524;12.052;2023-08-06T12:34:18;9.30;;;2.40;;
58366;SDS011;57745;42.524;12.052;2023-08-06T12:36:44;7.15;;;2.60;;
58366;SDS011;57745;42.524;12.052;2023-08-06T12:39:09;12.43;;;2.92;;
58366;SDS011;57745;42.524;12.052;2023-08-06T12:41:35;6.30;;;2.65;;
58366;SDS011;57745;42.524;12.052;2023-08-06T12:44:01;7.43;;;2.40;;
58366;SDS011;57745;42.524;12.052;2023-08-06T12:46:26;7.47;;;2.28;;
58366;SDS011;57745;42.524;12.052;2023-08-06T12:48:52;6.93;;;2.25;;
58366;SDS011;57745;42.524;12.052;2023-08-06T12:51:17;8.15;;;2.17;;
58366;SDS011;57745;42.524;12.052;2023-08-06T12:53:42;9.20;;;2.13;;
58366;SDS011;57745;42.524;12.052;2023-08-06T12:56:08;8.95;;;2.25;;
58366;SDS011;57745;42.524;12.052;2023-08-06T12:58:33;8.32;;;2.20;;
58366;SDS011;57745;42.524;12.052;2023-08-06T13:00:59;6.00;;;2.08;;
58366;SDS011;57745;42.524;12.052;2023-08-06T13:03:24;7.38;;;1.75;;
58366;SDS011;57745;42.524;12.052;2023-08-06T13:05:50;13.48;;;2.70;;
58366;SDS011;57745;42.524;12.052;2023-08-06T13:08:17;9.02;;;2.22;;
58366;SDS011;57745;42.524;12.052;2023-08-06T13:10:42;8.90;;;2.40;;
58366;SDS011;57745;42.524;12.052;2023-08-06T13:13:08;8.68;;;2.50;;
58366;SDS011;57745;42.524;12.052;2023-08-06T13:15:35;9.45;;;2.25;;
58366;SDS011;57745;42.524;12.052;2023-08-06T13:18:01;9.55;;;2.50;;
58366;SDS011;57745;42.524;12.052;2023-08-06T13:20:26;6.93;;;2.20;;
58366;SDS011;57745;42.524;12.052;2023-08-06T13:22:52;7.50;;;2.20;;
58366;SDS011;57745;42.524;12.052;2023-08-06T13:25:19;10.07;;;2.30;;
58366;SDS011;57745;42.524;12.052;2023-08-06T13:27:44;6.13;;;2.25;;
58366;SDS011;57745;42.524;12.052;2023-08-06T13:30:11;5.63;;;1.77;;
58366;SDS011;57745;42.524;12.052;2023-08-06T13:32:36;9.60;;;2.22;;
58366;SDS011;57745;42.524;12.052;2023-08-06T13:35:03;6.22;;;2.08;;
58366;SDS011;57745;42.524;12.052;2023-08-06T13:37:29;9.73;;;2.10;;
58366;SDS011;57745;42.524;12.052;2023-08-06T13:39:55;6.78;;;1.95;;
58366;SDS011;57745;42.524;12.052;2023-08-06T13:42:20;5.88;;;1.88;;
58366;SDS011;57745;42.524;12.052;2023-08-06T13:44:46;8.38;;;2.20;;
58366;SDS011;57745;42.524;12.052;2023-08-06T13:47:12;8.68;;;2.42;;
58366;SDS011;57745;42.524;12.052;2023-08-06T13:49:37;5.40;;;1.77;;
58366;SDS011;57745;42.524;12.052;2023-08-06T13:52:03;9.35;;;2.25;;
58366;SDS011;57745;42.524;12.052;2023-08-06T13:54:28;5.80;;;2.30;;
58366;SDS011;57745;42.524;12.052;2023-08-06T13:56:54;9.88;;;2.75;;
58366;SDS011;57745;42.524;12.052;2023-08-06T13:59:20;8.77;;;2.20;;
58366;SDS011;57745;42.524;12.052;2023-08-06T14:01:45;10.32;;;2.67;;
58366;SDS011;57745;42.524;12.052;2023-08-06T14:04:13;12.38;;;3.15;;
58366;SDS011;57745;42.524;12.052;2023-08-06T14:06:38;9.55;;;3.17;;
58366;SDS011;57745;42.524;12.052;2023-08-06T14:09:04;13.52;;;3.08;;
58366;SDS011;57745;42.524;12.052;2023-08-06T14:11:29;11.38;;;3.10;;
58366;SDS011;57745;42.524;12.052;2023-08-06T14:13:55;10.40;;;3.10;;
58366;SDS011;57745;42.524;12.052;2023-08-06T14:16:20;8.95;;;2.88;;
58366;SDS011;57745;42.524;12.052;2023-08-06T14:18:46;9.43;;;3.08;;
58366;SDS011;57745;42.524;12.052;2023-08-06T14:21:11;15.50;;;2.90;;
58366;SDS011;57745;42.524;12.052;2023-08-06T14:23:37;8.30;;;2.35;;
58366;SDS011;57745;42.524;12.052;2023-08-06T14:26:02;12.93;;;2.83;;
58366;SDS011;57745;42.524;12.052;2023-08-06T14:28:28;10.65;;;2.92;;
58366;SDS011;57745;42.524;12.052;2023-08-06T14:30:53;10.43;;;2.80;;
58366;SDS011;57745;42.524;12.052;2023-08-06T14:33:19;8.93;;;3.33;;
58366;SDS011;57745;42.524;12.052;2023-08-06T14:35:44;11.77;;;2.53;;
58366;SDS011;57745;42.524;12.052;2023-08-06T14:38:10;12.35;;;3.40;;
58366;SDS011;57745;42.524;12.052;2023-08-06T14:40:35;10.65;;;2.65;;
58366;SDS011;57745;42.524;12.052;2023-08-06T14:43:03;10.20;;;2.65;;
58366;SDS011;57745;42.524;12.052;2023-08-06T14:45:30;11.13;;;2.70;;